sensor_id;sensor_type;location;lat;lon;timestamp;P1;durP1;ratioP1;P2;durP2;ratioP2
80247;SDS011;69560;52.206;21.018;2023-05-09T00:00:49;22.70;;;15.20;;
80247;SDS011;69560;52.206;21.018;2023-05-09T00:03:16;20.90;;;14.70;;
80247;SDS011;69560;52.206;21.018;2023-05-09T00:05:42;25.30;;;15.20;;
80247;SDS011;69560;52.206;21.018;2023-05-09T00:08:09;24.10;;;15.80;;
80247;SDS011;69560;52.206;21.018;2023-05-09T00:10:36;25.30;;;15.40;;
80247;SDS011;69560;52.206;21.018;2023-05-09T00:13:03;19.50;;;15.10;;
80247;SDS011;69560;52.206;21.018;2023-05-09T00:15:35;26.80;;;16.30;;
80247;SDS011;69560;52.206;21.018;2023-05-09T00:18:05;26.30;;;15.50;;
80247;SDS011;69560;52.206;21.018;2023-05-09T00:20:31;22.70;;;16.00;;
80247;SDS011;69560;52.206;21.018;2023-05-09T00:22:59;30.50;;;16.80;;
80247;SDS011;69560;52.206;21.018;2023-05-09T00:25:25;29.90;;;17.10;;
80247;SDS011;69560;52.206;21.018;2023-05-09T00:27:52;27.50;;;18.00;;
80247;SDS011;69560;52.206;21.018;2023-05-09T00:30:19;26.40;;;17.80;;
80247;SDS011;69560;52.206;21.018;2023-05-09T00:32:49;25.30;;;18.40;;
80247;SDS011;69560;52.206;21.018;2023-05-09T00:35:19;30.10;;;19.10;;
80247;SDS011;69560;52.206;21.018;2023-05-09T00:37:45;27.20;;;19.20;;
80247;SDS011;69560;52.206;21.018;2023-05-09T00:40:12;27.70;;;18.50;;
80247;SDS011;69560;52.206;21.018;2023-05-09T00:42:39;25.50;;;18.00;;
80247;SDS011;69560;52.206;21.018;2023-05-09T00:45:06;26.10;;;18.10;;
80247;SDS011;69560;52.206;21.018;2023-05-09T00:50:04;23.50;;;17.10;;
80247;SDS011;69560;52.206;21.018;2023-05-09T00:52:31;26.30;;;17.20;;
80247;SDS011;69560;52.206;21.018;2023-05-09T00:54:59;24.30;;;18.20;;
80247;SDS011;69560;52.206;21.018;2023-05-09T00:57:32;23.80;;;17.10;;
80247;SDS011;69560;52.206;21.018;2023-05-09T00:59:59;24.80;;;17.00;;
80247;SDS011;69560;52.206;21.018;2023-05-09T01:02:26;29.60;;;18.60;;
80247;SDS011;69560;52.206;21.018;2023-05-09T01:05:00;23.40;;;16.80;;
80247;SDS011;69560;52.206;21.018;2023-05-09T01:07:29;26.10;;;18.30;;
80247;SDS011;69560;52.206;21.018;2023-05-09T01:10:21;23.90;;;17.30;;
80247;SDS011;69560;52.206;21.018;2023-05-09T01:13:03;32.20;;;18.40;;
80247;SDS011;69560;52.206;21.018;2023-05-09T01:15:41;28.20;;;17.70;;
80247;SDS011;69560;52.206;21.018;2023-05-09T01:18:14;24.90;;;17.20;;
80247;SDS011;69560;52.206;21.018;2023-05-09T01:20:50;24.80;;;18.40;;
80247;SDS011;69560;52.206;21.018;2023-05-09T01:23:47;27.30;;;17.90;;
80247;SDS011;69560;52.206;21.018;2023-05-09T01:26:29;24.40;;;17.40;;
80247;SDS011;69560;52.206;21.018;2023-05-09T01:32:08;25.30;;;17.20;;
80247;SDS011;69560;52.206;21.018;2023-05-09T01:34:41;27.10;;;18.80;;
80247;SDS011;69560;52.206;21.018;2023-05-09T01:37:10;28.10;;;18.00;;
80247;SDS011;69560;52.206;21.018;2023-05-09T01:39:41;32.90;;;17.70;;
80247;SDS011;69560;52.206;21.018;2023-05-09T01:42:13;26.70;;;17.60;;
80247;SDS011;69560;52.206;21.018;2023-05-09T01:44:41;26.70;;;18.30;;
80247;SDS011;69560;52.206;21.018;2023-05-09T01:47:11;22.80;;;17.30;;
80247;SDS011;69560;52.206;21.018;2023-05-09T01:49:41;31.80;;;17.90;;
80247;SDS011;69560;52.206;21.018;2023-05-09T01:52:11;24.50;;;17.30;;
80247;SDS011;69560;52.206;21.018;2023-05-09T01:54:41;27.40;;;18.40;;
80247;SDS011;69560;52.206;21.018;2023-05-09T01:57:09;24.20;;;16.90;;
80247;SDS011;69560;52.206;21.018;2023-05-09T01:59:38;24.00;;;17.60;;
80247;SDS011;69560;52.206;21.018;2023-05-09T02:02:07;24.60;;;17.90;;
80247;SDS011;69560;52.206;21.018;2023-05-09T02:04:35;25.80;;;17.50;;
80247;SDS011;69560;52.206;21.018;2023-05-09T02:07:02;25.60;;;18.40;;
80247;SDS011;69560;52.206;21.018;2023-05-09T02:09:31;27.20;;;17.20;;
80247;SDS011;69560;52.206;21.018;2023-05-09T02:11:58;26.10;;;17.70;;
80247;SDS011;69560;52.206;21.018;2023-05-09T02:14:24;28.20;;;18.70;;
80247;SDS011;69560;52.206;21.018;2023-05-09T02:16:51;24.80;;;18.70;;
80247;SDS011;69560;52.206;21.018;2023-05-09T02:19:18;25.30;;;17.50;;
80247;SDS011;69560;52.206;21.018;2023-05-09T02:21:45;23.90;;;17.30;;
80247;SDS011;69560;52.206;21.018;2023-05-09T02:24:11;25.90;;;18.20;;
80247;SDS011;69560;52.206;21.018;2023-05-09T02:26:38;25.50;;;18.40;;
80247;SDS011;69560;52.206;21.018;2023-05-09T02:29:06;27.90;;;18.50;;
80247;SDS011;69560;52.206;21.018;2023-05-09T02:31:34;24.70;;;18.00;;
80247;SDS011;69560;52.206;21.018;2023-05-09T02:34:02;23.80;;;18.00;;
80247;SDS011;69560;52.206;21.018;2023-05-09T02:36:30;28.20;;;18.40;;
80247;SDS011;69560;52.206;21.018;2023-05-09T02:38:58;25.50;;;18.90;;
80247;SDS011;69560;52.206;21.018;2023-05-09T02:41:25;28.30;;;18.50;;
80247;SDS011;69560;52.206;21.018;2023-05-09T02:43:55;27.60;;;20.40;;
80247;SDS011;69560;52.206;21.018;2023-05-09T02:46:21;24.20;;;18.80;;
80247;SDS011;69560;52.206;21.018;2023-05-09T02:48:48;27.40;;;19.10;;
80247;SDS011;69560;52.206;21.018;2023-05-09T02:51:15;25.30;;;19.10;;
80247;SDS011;69560;52.206;21.018;2023-05-09T02:53:41;27.20;;;19.40;;
80247;SDS011;69560;52.206;21.018;2023-05-09T02:56:11;27.20;;;20.00;;
80247;SDS011;69560;52.206;21.018;2023-05-09T02:58:38;28.60;;;19.40;;
80247;SDS011;69560;52.206;21.018;2023-05-09T03:01:04;26.90;;;18.70;;
80247;SDS011;69560;52.206;21.018;2023-05-09T03:03:34;27.80;;;18.40;;
80247;SDS011;69560;52.206;21.018;2023-05-09T03:06:04;29.50;;;19.30;;
80247;SDS011;69560;52.206;21.018;2023-05-09T03:08:33;26.90;;;18.90;;
80247;SDS011;69560;52.206;21.018;2023-05-09T03:11:00;24.50;;;18.40;;
80247;SDS011;69560;52.206;21.018;2023-05-09T03:13:27;26.50;;;18.40;;
80247;SDS011;69560;52.206;21.018;2023-05-09T03:15:53;25.80;;;18.70;;
80247;SDS011;69560;52.206;21.018;2023-05-09T03:18:20;26.70;;;18.50;;
80247;SDS011;69560;52.206;21.018;2023-05-09T03:20:47;25.90;;;18.30;;
80247;SDS011;69560;52.206;21.018;2023-05-09T03:23:13;27.10;;;18.60;;
80247;SDS011;69560;52.206;21.018;2023-05-09T03:25:40;27.10;;;18.90;;
80247;SDS011;69560;52.206;21.018;2023-05-09T03:28:07;27.20;;;18.00;;
80247;SDS011;69560;52.206;21.018;2023-05-09T03:30:34;24.20;;;18.30;;
80247;SDS011;69560;52.206;21.018;2023-05-09T03:33:00;25.50;;;18.10;;
80247;SDS011;69560;52.206;21.018;2023-05-09T03:35:29;30.80;;;18.20;;
80247;SDS011;69560;52.206;21.018;2023-05-09T03:37:56;27.70;;;18.50;;
80247;SDS011;69560;52.206;21.018;2023-05-09T03:40:23;24.20;;;17.10;;
80247;SDS011;69560;52.206;21.018;2023-05-09T03:42:52;24.80;;;18.60;;
80247;SDS011;69560;52.206;21.018;2023-05-09T03:45:29;24.60;;;17.90;;
80247;SDS011;69560;52.206;21.018;2023-05-09T03:47:56;25.30;;;17.70;;
80247;SDS011;69560;52.206;21.018;2023-05-09T03:50:24;27.80;;;18.60;;
80247;SDS011;69560;52.206;21.018;2023-05-09T03:52:51;23.40;;;17.60;;
80247;SDS011;69560;52.206;21.018;2023-05-09T03:55:17;25.70;;;17.00;;
80247;SDS011;69560;52.206;21.018;2023-05-09T03:57:44;26.70;;;17.00;;
80247;SDS011;69560;52.206;21.018;2023-05-09T04:00:11;25.10;;;16.60;;
80247;SDS011;69560;52.206;21.018;2023-05-09T04:02:38;22.80;;;15.80;;
80247;SDS011;69560;52.206;21.018;2023-05-09T04:05:05;23.90;;;16.60;;
80247;SDS011;69560;52.206;21.018;2023-05-09T04:07:32;22.30;;;15.70;;
80247;SDS011;69560;52.206;21.018;2023-05-09T04:10:03;23.50;;;15.50;;
80247;SDS011;69560;52.206;21.018;2023-05-09T04:12:30;26.00;;;15.80;;
80247;SDS011;69560;52.206;21.018;2023-05-09T04:14:57;23.90;;;15.40;;
80247;SDS011;69560;52.206;21.018;2023-05-09T04:17:23;19.90;;;15.20;;
80247;SDS011;69560;52.206;21.018;2023-05-09T04:19:50;23.80;;;14.90;;
80247;SDS011;69560;52.206;21.018;2023-05-09T04:22:17;24.80;;;16.10;;
80247;SDS011;69560;52.206;21.018;2023-05-09T04:24:44;22.70;;;16.20;;
80247;SDS011;69560;52.206;21.018;2023-05-09T04:27:10;23.10;;;16.20;;
80247;SDS011;69560;52.206;21.018;2023-05-09T04:29:37;24.20;;;16.90;;
80247;SDS011;69560;52.206;21.018;2023-05-09T04:32:04;26.20;;;16.70;;
80247;SDS011;69560;52.206;21.018;2023-05-09T04:34:30;24.90;;;17.20;;
80247;SDS011;69560;52.206;21.018;2023-05-09T04:36:57;22.80;;;16.50;;
80247;SDS011;69560;52.206;21.018;2023-05-09T04:39:24;23.20;;;16.90;;
80247;SDS011;69560;52.206;21.018;2023-05-09T04:41:51;22.60;;;16.70;;
80247;SDS011;69560;52.206;21.018;2023-05-09T04:44:18;24.40;;;16.40;;
80247;SDS011;69560;52.206;21.018;2023-05-09T04:46:44;25.60;;;16.30;;
80247;SDS011;69560;52.206;21.018;2023-05-09T04:49:11;21.50;;;15.60;;
80247;SDS011;69560;52.206;21.018;2023-05-09T04:51:37;24.20;;;16.80;;
80247;SDS011;69560;52.206;21.018;2023-05-09T04:54:04;19.90;;;14.50;;
80247;SDS011;69560;52.206;21.018;2023-05-09T04:56:32;23.40;;;15.30;;
80247;SDS011;69560;52.206;21.018;2023-05-09T04:58:58;19.80;;;14.20;;
80247;SDS011;69560;52.206;21.018;2023-05-09T05:01:25;25.00;;;14.60;;
80247;SDS011;69560;52.206;21.018;2023-05-09T05:03:52;21.90;;;14.80;;
80247;SDS011;69560;52.206;21.018;2023-05-09T05:06:19;21.30;;;14.00;;
80247;SDS011;69560;52.206;21.018;2023-05-09T05:08:48;21.40;;;14.90;;
80247;SDS011;69560;52.206;21.018;2023-05-09T05:11:15;19.30;;;14.70;;
80247;SDS011;69560;52.206;21.018;2023-05-09T05:13:43;19.00;;;14.50;;
80247;SDS011;69560;52.206;21.018;2023-05-09T05:16:10;18.30;;;14.00;;
80247;SDS011;69560;52.206;21.018;2023-05-09T05:18:36;20.10;;;14.60;;
80247;SDS011;69560;52.206;21.018;2023-05-09T05:21:03;20.70;;;14.70;;
80247;SDS011;69560;52.206;21.018;2023-05-09T05:23:30;18.90;;;14.10;;
80247;SDS011;69560;52.206;21.018;2023-05-09T05:25:57;18.50;;;13.10;;
80247;SDS011;69560;52.206;21.018;2023-05-09T05:28:23;18.20;;;13.20;;
80247;SDS011;69560;52.206;21.018;2023-05-09T05:30:50;17.20;;;12.50;;
80247;SDS011;69560;52.206;21.018;2023-05-09T05:33:16;21.40;;;12.90;;
80247;SDS011;69560;52.206;21.018;2023-05-09T05:35:43;21.70;;;12.00;;
80247;SDS011;69560;52.206;21.018;2023-05-09T05:38:10;24.70;;;12.50;;
80247;SDS011;69560;52.206;21.018;2023-05-09T05:40:36;15.60;;;12.20;;
80247;SDS011;69560;52.206;21.018;2023-05-09T05:43:03;16.30;;;11.50;;
80247;SDS011;69560;52.206;21.018;2023-05-09T05:45:29;19.00;;;11.40;;
80247;SDS011;69560;52.206;21.018;2023-05-09T05:47:56;15.40;;;10.30;;
80247;SDS011;69560;52.206;21.018;2023-05-09T05:50:23;20.80;;;10.60;;
80247;SDS011;69560;52.206;21.018;2023-05-09T05:52:49;14.00;;;9.50;;
80247;SDS011;69560;52.206;21.018;2023-05-09T05:55:16;14.10;;;10.10;;
80247;SDS011;69560;52.206;21.018;2023-05-09T05:57:43;13.40;;;9.90;;
80247;SDS011;69560;52.206;21.018;2023-05-09T06:00:10;14.40;;;10.30;;
80247;SDS011;69560;52.206;21.018;2023-05-09T06:02:37;17.90;;;9.70;;
80247;SDS011;69560;52.206;21.018;2023-05-09T06:05:04;12.50;;;9.20;;
80247;SDS011;69560;52.206;21.018;2023-05-09T06:07:32;13.80;;;9.60;;
80247;SDS011;69560;52.206;21.018;2023-05-09T06:09:58;14.60;;;9.80;;
80247;SDS011;69560;52.206;21.018;2023-05-09T06:12:25;12.30;;;8.70;;
80247;SDS011;69560;52.206;21.018;2023-05-09T06:14:52;13.10;;;9.00;;
80247;SDS011;69560;52.206;21.018;2023-05-09T06:17:19;15.00;;;9.20;;
80247;SDS011;69560;52.206;21.018;2023-05-09T06:19:45;12.20;;;9.10;;
80247;SDS011;69560;52.206;21.018;2023-05-09T06:22:12;14.90;;;8.80;;
80247;SDS011;69560;52.206;21.018;2023-05-09T06:24:39;19.40;;;9.30;;
80247;SDS011;69560;52.206;21.018;2023-05-09T06:27:05;13.80;;;8.40;;
80247;SDS011;69560;52.206;21.018;2023-05-09T06:29:32;11.60;;;8.70;;
80247;SDS011;69560;52.206;21.018;2023-05-09T06:31:59;12.90;;;9.30;;
80247;SDS011;69560;52.206;21.018;2023-05-09T06:34:25;12.70;;;8.30;;
80247;SDS011;69560;52.206;21.018;2023-05-09T06:36:52;16.40;;;8.90;;
80247;SDS011;69560;52.206;21.018;2023-05-09T06:39:19;10.60;;;7.90;;
80247;SDS011;69560;52.206;21.018;2023-05-09T06:41:45;11.30;;;8.80;;
80247;SDS011;69560;52.206;21.018;2023-05-09T06:44:12;15.80;;;8.60;;
80247;SDS011;69560;52.206;21.018;2023-05-09T06:46:38;12.80;;;7.90;;
80247;SDS011;69560;52.206;21.018;2023-05-09T06:49:05;11.00;;;7.20;;
80247;SDS011;69560;52.206;21.018;2023-05-09T06:51:31;10.00;;;7.50;;
80247;SDS011;69560;52.206;21.018;2023-05-09T06:53:58;10.00;;;7.10;;
80247;SDS011;69560;52.206;21.018;2023-05-09T06:56:25;15.50;;;6.10;;
80247;SDS011;69560;52.206;21.018;2023-05-09T06:58:52;7.80;;;5.40;;
80247;SDS011;69560;52.206;21.018;2023-05-09T07:01:19;11.20;;;5.70;;
80247;SDS011;69560;52.206;21.018;2023-05-09T07:03:45;6.50;;;4.30;;
80247;SDS011;69560;52.206;21.018;2023-05-09T07:06:12;6.70;;;4.60;;
80247;SDS011;69560;52.206;21.018;2023-05-09T07:08:39;7.40;;;4.40;;
80247;SDS011;69560;52.206;21.018;2023-05-09T07:11:06;7.20;;;4.50;;
80247;SDS011;69560;52.206;21.018;2023-05-09T07:13:32;6.20;;;4.50;;
80247;SDS011;69560;52.206;21.018;2023-05-09T07:15:59;5.40;;;4.00;;
80247;SDS011;69560;52.206;21.018;2023-05-09T07:18:25;6.20;;;3.90;;
80247;SDS011;69560;52.206;21.018;2023-05-09T07:20:52;7.50;;;3.50;;
80247;SDS011;69560;52.206;21.018;2023-05-09T07:23:18;7.10;;;3.10;;
80247;SDS011;69560;52.206;21.018;2023-05-09T07:25:45;4.60;;;2.70;;
80247;SDS011;69560;52.206;21.018;2023-05-09T07:28:12;6.60;;;3.00;;
80247;SDS011;69560;52.206;21.018;2023-05-09T07:30:38;3.70;;;2.60;;
80247;SDS011;69560;52.206;21.018;2023-05-09T07:33:05;3.20;;;2.50;;
80247;SDS011;69560;52.206;21.018;2023-05-09T07:35:32;5.40;;;2.60;;
80247;SDS011;69560;52.206;21.018;2023-05-09T07:37:59;4.50;;;2.90;;
80247;SDS011;69560;52.206;21.018;2023-05-09T07:40:26;4.20;;;3.30;;
80247;SDS011;69560;52.206;21.018;2023-05-09T07:42:52;4.00;;;3.20;;
80247;SDS011;69560;52.206;21.018;2023-05-09T07:45:20;3.80;;;2.40;;
80247;SDS011;69560;52.206;21.018;2023-05-09T07:47:46;3.00;;;2.10;;
80247;SDS011;69560;52.206;21.018;2023-05-09T07:50:13;3.20;;;2.50;;
80247;SDS011;69560;52.206;21.018;2023-05-09T07:52:40;3.80;;;2.50;;
80247;SDS011;69560;52.206;21.018;2023-05-09T07:55:06;5.10;;;2.50;;
80247;SDS011;69560;52.206;21.018;2023-05-09T07:57:33;4.90;;;2.60;;
80247;SDS011;69560;52.206;21.018;2023-05-09T08:00:00;4.00;;;2.80;;
80247;SDS011;69560;52.206;21.018;2023-05-09T08:02:27;4.00;;;2.80;;
80247;SDS011;69560;52.206;21.018;2023-05-09T08:04:53;2.60;;;2.40;;
80247;SDS011;69560;52.206;21.018;2023-05-09T08:07:20;3.10;;;2.60;;
80247;SDS011;69560;52.206;21.018;2023-05-09T08:09:46;3.90;;;2.60;;
80247;SDS011;69560;52.206;21.018;2023-05-09T08:12:13;3.70;;;2.30;;
80247;SDS011;69560;52.206;21.018;2023-05-09T08:14:40;3.60;;;2.60;;
80247;SDS011;69560;52.206;21.018;2023-05-09T08:17:07;5.70;;;2.60;;
80247;SDS011;69560;52.206;21.018;2023-05-09T08:19:33;4.40;;;2.80;;
80247;SDS011;69560;52.206;21.018;2023-05-09T08:22:00;5.80;;;2.60;;
80247;SDS011;69560;52.206;21.018;2023-05-09T08:24:27;6.90;;;3.00;;
80247;SDS011;69560;52.206;21.018;2023-05-09T08:26:54;4.50;;;2.60;;
80247;SDS011;69560;52.206;21.018;2023-05-09T08:29:21;2.70;;;2.40;;
80247;SDS011;69560;52.206;21.018;2023-05-09T08:31:47;7.70;;;4.20;;
80247;SDS011;69560;52.206;21.018;2023-05-09T08:34:17;3.60;;;2.60;;
80247;SDS011;69560;52.206;21.018;2023-05-09T08:36:43;6.00;;;2.80;;
80247;SDS011;69560;52.206;21.018;2023-05-09T08:39:12;3.40;;;2.60;;
80247;SDS011;69560;52.206;21.018;2023-05-09T08:41:38;3.40;;;2.50;;
80247;SDS011;69560;52.206;21.018;2023-05-09T08:44:05;4.80;;;2.50;;
80247;SDS011;69560;52.206;21.018;2023-05-09T08:46:36;3.30;;;2.10;;
80247;SDS011;69560;52.206;21.018;2023-05-09T08:49:07;3.80;;;2.40;;
80247;SDS011;69560;52.206;21.018;2023-05-09T08:51:34;8.20;;;2.60;;
80247;SDS011;69560;52.206;21.018;2023-05-09T08:54:01;2.90;;;2.20;;
80247;SDS011;69560;52.206;21.018;2023-05-09T08:56:29;4.90;;;2.60;;
80247;SDS011;69560;52.206;21.018;2023-05-09T08:58:57;3.30;;;2.20;;
80247;SDS011;69560;52.206;21.018;2023-05-09T09:01:24;3.20;;;2.50;;
80247;SDS011;69560;52.206;21.018;2023-05-09T09:03:52;5.70;;;2.50;;
80247;SDS011;69560;52.206;21.018;2023-05-09T09:06:20;2.60;;;2.30;;
80247;SDS011;69560;52.206;21.018;2023-05-09T09:08:47;3.40;;;2.30;;
80247;SDS011;69560;52.206;21.018;2023-05-09T09:11:15;3.20;;;2.40;;
80247;SDS011;69560;52.206;21.018;2023-05-09T09:13:43;4.50;;;2.40;;
80247;SDS011;69560;52.206;21.018;2023-05-09T09:16:21;3.10;;;2.30;;
80247;SDS011;69560;52.206;21.018;2023-05-09T09:18:53;5.10;;;2.40;;
80247;SDS011;69560;52.206;21.018;2023-05-09T09:21:21;2.40;;;2.20;;
80247;SDS011;69560;52.206;21.018;2023-05-09T09:23:48;3.00;;;2.60;;
80247;SDS011;69560;52.206;21.018;2023-05-09T09:26:17;5.50;;;3.10;;
80247;SDS011;69560;52.206;21.018;2023-05-09T09:28:43;5.70;;;2.30;;
80247;SDS011;69560;52.206;21.018;2023-05-09T09:33:46;4.50;;;2.20;;
80247;SDS011;69560;52.206;21.018;2023-05-09T09:36:14;6.50;;;2.50;;
80247;SDS011;69560;52.206;21.018;2023-05-09T09:38:41;3.00;;;2.10;;
80247;SDS011;69560;52.206;21.018;2023-05-09T09:41:12;3.70;;;2.30;;
80247;SDS011;69560;52.206;21.018;2023-05-09T09:43:38;3.80;;;2.40;;
80247;SDS011;69560;52.206;21.018;2023-05-09T09:46:11;4.10;;;2.30;;
80247;SDS011;69560;52.206;21.018;2023-05-09T09:48:39;4.90;;;2.20;;
80247;SDS011;69560;52.206;21.018;2023-05-09T09:51:09;6.80;;;2.30;;
80247;SDS011;69560;52.206;21.018;2023-05-09T09:53:40;3.50;;;2.40;;
80247;SDS011;69560;52.206;21.018;2023-05-09T09:56:13;3.20;;;2.80;;
80247;SDS011;69560;52.206;21.018;2023-05-09T09:58:40;6.20;;;4.90;;
80247;SDS011;69560;52.206;21.018;2023-05-09T10:01:10;11.80;;;8.30;;
80247;SDS011;69560;52.206;21.018;2023-05-09T10:03:42;6.80;;;3.10;;
80247;SDS011;69560;52.206;21.018;2023-05-09T10:06:13;2.70;;;2.40;;
80247;SDS011;69560;52.206;21.018;2023-05-09T10:08:42;6.50;;;2.80;;
80247;SDS011;69560;52.206;21.018;2023-05-09T10:11:14;3.80;;;2.70;;
80247;SDS011;69560;52.206;21.018;2023-05-09T10:13:40;4.50;;;2.70;;
80247;SDS011;69560;52.206;21.018;2023-05-09T10:16:08;4.90;;;2.50;;
80247;SDS011;69560;52.206;21.018;2023-05-09T10:18:36;3.00;;;2.30;;
80247;SDS011;69560;52.206;21.018;2023-05-09T10:21:06;5.20;;;2.40;;
80247;SDS011;69560;52.206;21.018;2023-05-09T10:23:36;2.60;;;2.30;;
80247;SDS011;69560;52.206;21.018;2023-05-09T10:28:41;6.00;;;2.30;;
80247;SDS011;69560;52.206;21.018;2023-05-09T10:31:12;2.60;;;2.20;;
80247;SDS011;69560;52.206;21.018;2023-05-09T10:33:47;3.00;;;2.40;;
80247;SDS011;69560;52.206;21.018;2023-05-09T10:36:18;2.80;;;2.50;;
80247;SDS011;69560;52.206;21.018;2023-05-09T10:38:47;4.30;;;2.40;;
80247;SDS011;69560;52.206;21.018;2023-05-09T10:41:15;2.40;;;2.20;;
80247;SDS011;69560;52.206;21.018;2023-05-09T10:43:44;3.70;;;2.70;;
80247;SDS011;69560;52.206;21.018;2023-05-09T10:46:11;4.10;;;2.50;;
80247;SDS011;69560;52.206;21.018;2023-05-09T10:48:39;2.60;;;2.30;;
80247;SDS011;69560;52.206;21.018;2023-05-09T10:51:07;4.00;;;3.00;;
80247;SDS011;69560;52.206;21.018;2023-05-09T10:53:44;4.40;;;2.40;;
80247;SDS011;69560;52.206;21.018;2023-05-09T10:56:28;2.90;;;2.20;;
80247;SDS011;69560;52.206;21.018;2023-05-09T10:58:57;4.00;;;2.80;;
80247;SDS011;69560;52.206;21.018;2023-05-09T11:03:57;2.50;;;2.00;;
80247;SDS011;69560;52.206;21.018;2023-05-09T11:11:55;9.00;;;2.70;;
80247;SDS011;69560;52.206;21.018;2023-05-09T11:14:37;4.00;;;2.80;;
80247;SDS011;69560;52.206;21.018;2023-05-09T11:17:09;5.70;;;2.10;;
80247;SDS011;69560;52.206;21.018;2023-05-09T11:19:37;5.60;;;2.40;;
80247;SDS011;69560;52.206;21.018;2023-05-09T11:22:11;4.40;;;2.20;;
80247;SDS011;69560;52.206;21.018;2023-05-09T11:24:43;2.60;;;2.40;;
80247;SDS011;69560;52.206;21.018;2023-05-09T11:27:20;3.30;;;2.40;;
80247;SDS011;69560;52.206;21.018;2023-05-09T11:29:49;3.70;;;2.50;;
80247;SDS011;69560;52.206;21.018;2023-05-09T11:32:25;6.30;;;2.40;;
80247;SDS011;69560;52.206;21.018;2023-05-09T11:37:45;3.80;;;2.30;;
80247;SDS011;69560;52.206;21.018;2023-05-09T11:40:12;4.40;;;2.20;;
80247;SDS011;69560;52.206;21.018;2023-05-09T11:42:41;6.30;;;2.60;;
80247;SDS011;69560;52.206;21.018;2023-05-09T11:45:10;7.10;;;2.70;;
80247;SDS011;69560;52.206;21.018;2023-05-09T11:47:38;5.30;;;2.60;;
80247;SDS011;69560;52.206;21.018;2023-05-09T11:50:05;19.10;;;16.90;;
80247;SDS011;69560;52.206;21.018;2023-05-09T11:52:33;6.20;;;4.10;;
80247;SDS011;69560;52.206;21.018;2023-05-09T11:55:00;3.30;;;2.50;;
80247;SDS011;69560;52.206;21.018;2023-05-09T11:57:27;3.50;;;2.50;;
80247;SDS011;69560;52.206;21.018;2023-05-09T11:59:54;5.40;;;2.70;;
80247;SDS011;69560;52.206;21.018;2023-05-09T12:02:21;2.30;;;2.10;;
80247;SDS011;69560;52.206;21.018;2023-05-09T12:04:48;7.00;;;2.40;;
80247;SDS011;69560;52.206;21.018;2023-05-09T12:07:15;3.10;;;2.40;;
80247;SDS011;69560;52.206;21.018;2023-05-09T12:09:43;3.90;;;2.20;;
80247;SDS011;69560;52.206;21.018;2023-05-09T12:12:10;3.50;;;2.60;;
80247;SDS011;69560;52.206;21.018;2023-05-09T12:14:38;4.00;;;2.50;;
80247;SDS011;69560;52.206;21.018;2023-05-09T12:17:06;5.60;;;2.60;;
80247;SDS011;69560;52.206;21.018;2023-05-09T12:19:33;3.50;;;2.00;;
80247;SDS011;69560;52.206;21.018;2023-05-09T12:22:01;4.20;;;2.50;;
80247;SDS011;69560;52.206;21.018;2023-05-09T12:24:29;4.00;;;2.30;;
80247;SDS011;69560;52.206;21.018;2023-05-09T12:26:57;2.90;;;2.30;;
80247;SDS011;69560;52.206;21.018;2023-05-09T12:29:25;4.10;;;2.50;;
80247;SDS011;69560;52.206;21.018;2023-05-09T12:31:52;3.70;;;2.40;;
80247;SDS011;69560;52.206;21.018;2023-05-09T12:34:19;5.20;;;2.20;;
80247;SDS011;69560;52.206;21.018;2023-05-09T12:36:46;3.10;;;2.50;;
80247;SDS011;69560;52.206;21.018;2023-05-09T12:39:16;3.80;;;2.40;;
80247;SDS011;69560;52.206;21.018;2023-05-09T12:41:44;4.40;;;2.60;;
80247;SDS011;69560;52.206;21.018;2023-05-09T12:44:20;3.40;;;2.50;;
80247;SDS011;69560;52.206;21.018;2023-05-09T12:46:52;5.20;;;2.40;;
80247;SDS011;69560;52.206;21.018;2023-05-09T12:49:26;12.20;;;7.90;;
80247;SDS011;69560;52.206;21.018;2023-05-09T12:51:58;4.80;;;3.30;;
80247;SDS011;69560;52.206;21.018;2023-05-09T12:54:26;4.70;;;2.40;;
80247;SDS011;69560;52.206;21.018;2023-05-09T12:56:55;4.60;;;2.70;;
80247;SDS011;69560;52.206;21.018;2023-05-09T12:59:24;6.30;;;2.30;;
80247;SDS011;69560;52.206;21.018;2023-05-09T13:01:55;2.90;;;2.20;;
80247;SDS011;69560;52.206;21.018;2023-05-09T13:04:25;6.20;;;2.40;;
80247;SDS011;69560;52.206;21.018;2023-05-09T13:06:55;3.60;;;2.50;;
80247;SDS011;69560;52.206;21.018;2023-05-09T13:09:23;4.80;;;2.50;;
80247;SDS011;69560;52.206;21.018;2023-05-09T13:11:51;3.10;;;2.60;;
80247;SDS011;69560;52.206;21.018;2023-05-09T13:14:21;4.60;;;1.80;;
80247;SDS011;69560;52.206;21.018;2023-05-09T13:16:48;8.50;;;2.10;;
80247;SDS011;69560;52.206;21.018;2023-05-09T13:19:14;2.10;;;1.90;;
80247;SDS011;69560;52.206;21.018;2023-05-09T13:21:44;4.40;;;2.40;;
80247;SDS011;69560;52.206;21.018;2023-05-09T13:24:10;4.20;;;2.20;;
80247;SDS011;69560;52.206;21.018;2023-05-09T13:26:37;4.20;;;2.40;;
80247;SDS011;69560;52.206;21.018;2023-05-09T13:29:04;2.60;;;2.00;;
80247;SDS011;69560;52.206;21.018;2023-05-09T13:31:30;4.40;;;2.30;;
80247;SDS011;69560;52.206;21.018;2023-05-09T13:33:57;3.80;;;2.50;;
80247;SDS011;69560;52.206;21.018;2023-05-09T13:36:24;2.50;;;2.10;;
80247;SDS011;69560;52.206;21.018;2023-05-09T13:38:50;3.10;;;2.50;;
80247;SDS011;69560;52.206;21.018;2023-05-09T13:41:19;7.50;;;2.60;;
80247;SDS011;69560;52.206;21.018;2023-05-09T13:43:47;4.40;;;2.50;;
80247;SDS011;69560;52.206;21.018;2023-05-09T13:46:14;5.40;;;2.50;;
80247;SDS011;69560;52.206;21.018;2023-05-09T13:48:41;4.40;;;2.70;;
80247;SDS011;69560;52.206;21.018;2023-05-09T13:51:07;4.00;;;2.50;;
80247;SDS011;69560;52.206;21.018;2023-05-09T13:53:35;5.80;;;3.00;;
80247;SDS011;69560;52.206;21.018;2023-05-09T13:56:02;2.70;;;2.10;;
80247;SDS011;69560;52.206;21.018;2023-05-09T13:58:28;2.70;;;2.30;;
80247;SDS011;69560;52.206;21.018;2023-05-09T14:00:57;4.70;;;2.80;;
80247;SDS011;69560;52.206;21.018;2023-05-09T14:03:24;5.00;;;2.70;;
80247;SDS011;69560;52.206;21.018;2023-05-09T14:05:51;5.00;;;2.70;;
80247;SDS011;69560;52.206;21.018;2023-05-09T14:08:18;4.70;;;2.50;;
80247;SDS011;69560;52.206;21.018;2023-05-09T14:10:46;4.90;;;2.50;;
80247;SDS011;69560;52.206;21.018;2023-05-09T14:13:13;4.90;;;2.40;;
80247;SDS011;69560;52.206;21.018;2023-05-09T14:15:40;2.90;;;2.50;;
80247;SDS011;69560;52.206;21.018;2023-05-09T14:18:07;3.10;;;2.40;;
80247;SDS011;69560;52.206;21.018;2023-05-09T14:20:33;4.60;;;2.50;;
80247;SDS011;69560;52.206;21.018;2023-05-09T14:23:02;4.80;;;2.40;;
80247;SDS011;69560;52.206;21.018;2023-05-09T14:25:29;3.20;;;2.50;;
80247;SDS011;69560;52.206;21.018;2023-05-09T14:27:55;5.20;;;2.90;;
80247;SDS011;69560;52.206;21.018;2023-05-09T14:30:24;5.80;;;2.70;;
80247;SDS011;69560;52.206;21.018;2023-05-09T14:32:51;5.90;;;2.60;;
80247;SDS011;69560;52.206;21.018;2023-05-09T14:35:18;3.20;;;2.50;;
80247;SDS011;69560;52.206;21.018;2023-05-09T14:37:45;4.90;;;2.70;;
80247;SDS011;69560;52.206;21.018;2023-05-09T14:40:11;6.70;;;2.60;;
80247;SDS011;69560;52.206;21.018;2023-05-09T14:42:38;3.80;;;2.60;;
80247;SDS011;69560;52.206;21.018;2023-05-09T14:45:05;7.60;;;2.60;;
80247;SDS011;69560;52.206;21.018;2023-05-09T14:47:32;4.60;;;2.60;;
80247;SDS011;69560;52.206;21.018;2023-05-09T14:49:59;4.60;;;2.70;;